Time;durP1;ratioP1;P1;durP2;ratioP2;P2;SDS_P1;SDS_P2;PMS_P1;PMS_P2;Temp;Humidity;BMP_temperature;BMP_pressure;BME280_temperature;BME280_humidity;BME280_pressure;Samples;Min_cycle;Max_cycle;Signal;HPM_P1;HPM_P2
2022/06/08 00:00:45;;;;;;;3.45;1.85;;;16.40;99.90;;;;;;5014931;28;20426;-48
2022/06/08 00:03:20;;;;;;;2.92;2.00;;;16.40;99.90;;;;;;5008725;28;20498;-47
2022/06/08 00:05:46;;;;;;;3.17;1.60;;;16.30;99.90;;;;;;5008308;28;20022;-50
2022/06/08 00:08:11;;;;;;;2.83;2.03;;;16.30;99.90;;;;;;5011407;28;20033;-48
2022/06/08 00:10:37;;;;;;;2.50;1.85;;;16.30;99.90;;;;;;5011682;28;20058;-49
2022/06/08 00:13:04;;;;;;;4.72;2.00;;;16.30;99.90;;;;;;5012086;28;20022;-48
2022/06/08 00:15:29;;;;;;;2.42;1.92;;;16.30;99.90;;;;;;5011666;28;20679;-49
2022/06/08 00:17:56;;;;;;;4.47;2.33;;;16.20;99.90;;;;;;5011829;28;20034;-50
2022/06/08 00:20:22;;;;;;;2.40;2.10;;;16.10;99.90;;;;;;5011192;28;20598;-49
2022/06/08 00:22:47;;;;;;;4.95;1.95;;;16.10;99.90;;;;;;5012070;28;20113;-48
2022/06/08 00:25:13;;;;;;;2.83;1.80;;;16.00;99.90;;;;;;5011876;28;20041;-47
2022/06/08 00:27:39;;;;;;;2.97;2.10;;;16.00;99.90;;;;;;5020742;28;20044;-49
2022/06/08 00:30:07;;;;;;;2.20;2.00;;;16.00;99.90;;;;;;5022780;28;20026;-47
2022/06/08 00:32:33;;;;;;;2.55;2.05;;;16.00;99.90;;;;;;5010474;28;20022;-48
2022/06/08 00:35:00;;;;;;;2.78;1.95;;;16.00;99.90;;;;;;5011664;28;20467;-51
2022/06/08 00:37:26;;;;;;;1.98;1.88;;;15.90;99.90;;;;;;5011807;28;20025;-49
2022/06/08 00:39:52;;;;;;;2.72;2.00;;;15.90;99.90;;;;;;5011249;28;20026;-48
2022/06/08 00:42:19;;;;;;;2.97;2.22;;;15.90;99.90;;;;;;5011734;28;20518;-50
2022/06/08 00:44:49;;;;;;;2.10;1.90;;;15.80;99.90;;;;;;5010002;28;20033;-46
2022/06/08 00:47:19;;;;;;;2.05;1.67;;;15.80;99.90;;;;;;5011933;28;20080;-47
2022/06/08 00:50:03;;;;;;;1.73;1.50;;;15.80;99.90;;;;;;5010650;28;20042;-49
2022/06/08 00:52:30;;;;;;;2.15;1.85;;;15.80;99.90;;;;;;5011188;28;20106;-50
2022/06/08 00:55:00;;;;;;;3.00;1.88;;;15.80;99.90;;;;;;5011405;28;20118;-48
2022/06/08 00:57:33;;;;;;;3.03;1.95;;;15.80;99.90;;;;;;5019820;28;20030;-48
2022/06/08 01:00:24;;;;;;;2.70;1.88;;;15.70;99.90;;;;;;5023138;28;20438;-47
2022/06/08 01:02:50;;;;;;;2.10;1.92;;;15.60;99.90;;;;;;5011138;28;20518;-48
2022/06/08 01:05:28;;;;;;;1.90;1.63;;;15.60;99.90;;;;;;5011045;28;20134;-48
2022/06/08 01:07:55;;;;;;;2.22;2.03;;;15.60;99.90;;;;;;5011077;28;20022;-49
2022/06/08 01:10:25;;;;;;;3.40;2.03;;;15.60;99.90;;;;;;5010360;28;20576;-46
2022/06/08 01:12:51;;;;;;;3.88;2.38;;;15.60;99.90;;;;;;5011119;28;20034;-47
2022/06/08 01:15:23;;;;;;;3.50;2.17;;;15.50;99.90;;;;;;5010517;28;20041;-48
2022/06/08 01:17:49;;;;;;;2.75;2.03;;;15.50;99.90;;;;;;5010581;28;20026;-47
2022/06/08 01:20:14;;;;;;;2.05;1.73;;;15.50;99.90;;;;;;5010176;28;20029;-47
2022/06/08 01:22:40;;;;;;;2.42;2.22;;;15.30;99.90;;;;;;5011070;28;20040;-48
2022/06/08 01:25:08;;;;;;;3.10;2.50;;;15.30;99.90;;;;;;5010480;28;20228;-50
2022/06/08 01:27:53;;;;;;;3.92;2.10;;;15.30;99.90;;;;;;5020190;28;20396;-47
2022/06/08 01:30:26;;;;;;;2.67;2.05;;;15.20;99.90;;;;;;5019821;28;20037;-47
2022/06/08 01:33:19;;;;;;;3.13;2.20;;;15.10;99.90;;;;;;5010487;28;20022;-50
2022/06/08 01:36:14;;;;;;;3.50;2.60;;;15.10;99.90;;;;;;5009343;28;20475;-50
2022/06/08 01:39:07;;;;;;;2.70;2.13;;;15.10;99.90;;;;;;5006535;28;20030;-48
2022/06/08 01:41:57;;;;;;;2.80;2.50;;;15.00;99.90;;;;;;5009773;28;20105;-47
2022/06/08 01:45:28;;;;;;;3.03;2.10;;;15.00;99.90;;;;;;5010474;28;20562;-46
2022/06/08 01:47:59;;;;;;;4.13;3.15;;;15.00;99.90;;;;;;5010162;28;20038;-46
2022/06/08 01:51:01;;;;;;;3.08;2.63;;;14.90;99.90;;;;;;5009691;28;20062;-46
2022/06/08 01:53:37;;;;;;;4.28;2.55;;;14.90;99.90;;;;;;5010192;28;20041;-47
2022/06/08 01:56:23;;;;;;;2.95;2.10;;;14.90;99.90;;;;;;5010201;28;20022;-47
2022/06/08 01:59:05;;;;;;;2.83;2.50;;;14.90;99.90;;;;;;5023837;28;20231;-47
2022/06/08 02:01:46;;;;;;;4.60;2.55;;;14.90;99.90;;;;;;5009539;28;20060;-47
2022/06/08 02:04:38;;;;;;;2.67;2.47;;;14.90;99.90;;;;;;5010005;28;20033;-47
2022/06/08 02:07:21;;;;;;;4.78;2.95;;;14.90;99.90;;;;;;5009880;28;20606;-47
2022/06/08 02:09:58;;;;;;;2.75;2.47;;;15.00;99.90;;;;;;5009299;28;20022;-49
2022/06/08 02:12:24;;;;;;;2.83;2.50;;;15.00;99.90;;;;;;5010122;28;20022;-46
2022/06/08 02:14:56;;;;;;;4.32;2.75;;;15.00;99.90;;;;;;5008144;28;20057;-49
2022/06/08 02:17:37;;;;;;;5.13;3.00;;;15.10;99.90;;;;;;5009702;28;20498;-47
2022/06/08 02:20:11;;;;;;;5.88;3.17;;;15.10;99.90;;;;;;5009159;28;20018;-47
2022/06/08 02:22:42;;;;;;;5.97;3.95;;;15.10;99.90;;;;;;5008451;28;20506;-46
2022/06/08 02:25:23;;;;;;;3.55;3.08;;;15.10;99.90;;;;;;5010044;28;20018;-49
2022/06/08 02:27:50;;;;;;;;;;;15.10;99.90;;;;;;5021905;28;20017;-50
2022/06/08 02:30:20;;;;;;;3.72;3.10;;;15.20;99.90;;;;;;5018264;28;20417;-47
2022/06/08 02:35:49;;;;;;;4.07;3.67;;;15.20;99.90;;;;;;5009648;28;20060;-47
2022/06/08 02:38:19;;;;;;;3.55;2.85;;;15.20;99.90;;;;;;5009675;28;20544;-49
2022/06/08 02:40:48;;;;;;;5.57;3.03;;;15.30;99.90;;;;;;5008825;28;20209;-50
2022/06/08 02:43:32;;;;;;;3.63;2.75;;;15.30;99.90;;;;;;5009575;28;20025;-49
2022/06/08 02:46:07;;;;;;;5.00;3.55;;;15.30;99.90;;;;;;5009146;28;20077;-47
2022/06/08 02:48:33;;;;;;;6.93;4.20;;;15.30;99.90;;;;;;5009495;28;20029;-47
2022/06/08 02:50:58;;;;;;;6.20;4.13;;;15.30;99.90;;;;;;5008683;28;20030;-50
2022/06/08 02:53:28;;;;;;;5.35;3.70;;;15.30;99.90;;;;;;5007939;28;20511;-47
2022/06/08 02:56:13;;;;;;;5.77;3.73;;;15.30;99.90;;;;;;5009221;28;20543;-47
2022/06/08 02:58:54;;;;;;;4.88;3.80;;;15.30;99.90;;;;;;5027276;28;20028;-47
2022/06/08 03:01:25;;;;;;;7.38;3.88;;;15.30;99.90;;;;;;5010112;28;20030;-47
2022/06/08 03:03:57;;;;;;;4.30;3.58;;;15.20;99.90;;;;;;5009070;28;20478;-48
2022/06/08 03:06:26;;;;;;;4.57;2.90;;;15.20;99.90;;;;;;5009551;28;20030;-46
2022/06/08 03:08:55;;;;;;;3.80;3.40;;;15.20;99.90;;;;;;5009128;28;20088;-48
2022/06/08 03:11:23;;;;;;;5.97;3.90;;;15.20;99.90;;;;;;5008162;28;20022;-50
2022/06/08 03:13:56;;;;;;;4.30;3.25;;;15.20;99.90;;;;;;5008943;28;20018;-47
2022/06/08 03:16:34;;;;;;;5.60;3.78;;;15.10;99.90;;;;;;5008640;28;20041;-47
2022/06/08 03:19:00;;;;;;;3.85;3.47;;;15.10;99.90;;;;;;5008977;28;20526;-47
2022/06/08 03:21:26;;;;;;;4.15;3.25;;;15.10;99.90;;;;;;5008391;28;20061;-46
2022/06/08 03:23:53;;;;;;;4.18;3.40;;;15.10;99.90;;;;;;5009258;28;20350;-49
2022/06/08 03:26:22;;;;;;;5.30;3.90;;;15.10;99.90;;;;;;5025584;28;20029;-47
2022/06/08 03:28:48;;;;;;;5.00;3.40;;;15.10;99.90;;;;;;5027017;28;20527;-48
2022/06/08 03:31:14;;;;;;;4.20;3.25;;;15.10;99.90;;;;;;5010379;28;20026;-47
2022/06/08 03:33:40;;;;;;;3.78;3.38;;;15.10;99.90;;;;;;5008815;28;20029;-49
2022/06/08 03:36:06;;;;;;;3.70;3.40;;;15.10;99.90;;;;;;5008824;28;20497;-49
2022/06/08 03:38:32;;;;;;;4.18;3.78;;;15.10;99.90;;;;;;5008843;28;20057;-47
2022/06/08 03:40:58;;;;;;;4.07;3.67;;;15.10;99.90;;;;;;5009398;28;20069;-49
2022/06/08 03:43:24;;;;;;;4.25;3.60;;;15.10;99.90;;;;;;5013030;28;20111;-48
2022/06/08 03:45:55;;;;;;;3.55;3.25;;;15.10;99.90;;;;;;5011145;28;20475;-48
2022/06/08 03:48:21;;;;;;;4.05;3.40;;;15.20;99.90;;;;;;5011473;28;20037;-46
2022/06/08 03:50:50;;;;;;;4.50;3.47;;;15.30;99.90;;;;;;5011979;28;20109;-47
2022/06/08 03:53:21;;;;;;;7.65;3.83;;;15.30;99.90;;;;;;5015587;28;20014;-48
2022/06/08 03:55:48;;;;;;;5.18;3.60;;;15.20;99.90;;;;;;5027915;28;20037;-47
2022/06/08 03:58:16;;;;;;;3.83;3.15;;;15.30;99.90;;;;;;5027164;28;20386;-47
2022/06/08 04:00:41;;;;;;;3.20;2.90;;;15.30;99.90;;;;;;5023960;28;20114;-46
2022/06/08 04:03:09;;;;;;;3.72;3.30;;;15.30;99.90;;;;;;5031946;28;20041;-47
2022/06/08 04:05:34;;;;;;;3.30;3.00;;;15.30;99.90;;;;;;5032140;28;20538;-50
2022/06/08 04:08:00;;;;;;;6.00;3.63;;;15.30;99.90;;;;;;5032429;28;20105;-48
2022/06/08 04:10:26;;;;;;;4.57;4.18;;;15.30;99.90;;;;;;5031710;28;20033;-46
2022/06/08 04:12:51;;;;;;;6.30;4.03;;;15.30;99.90;;;;;;5030638;28;20120;-47
2022/06/08 04:18:01;;;;;;;3.92;3.53;;;15.20;99.90;;;;;;5032303;28;20037;-47
2022/06/08 04:20:26;;;;;;;4.10;3.72;;;15.30;99.90;;;;;;5031082;28;20052;-46
2022/06/08 04:22:52;;;;;;;4.55;4.00;;;15.20;99.90;;;;;;5031856;28;20454;-47
2022/06/08 04:25:17;;;;;;;4.40;3.83;;;15.30;99.90;;;;;;5031526;28;20047;-47
2022/06/08 04:27:43;;;;;;;7.13;4.22;;;15.30;99.90;;;;;;5031484;28;20040;-48
2022/06/08 04:30:09;;;;;;;4.45;3.70;;;15.30;99.90;;;;;;5022405;28;20025;-48
2022/06/08 04:32:34;;;;;;;5.30;3.80;;;15.30;99.90;;;;;;5011593;28;20030;-47
2022/06/08 04:35:00;;;;;;;5.78;4.10;;;15.30;99.90;;;;;;5011491;28;20438;-48
2022/06/08 04:37:27;;;;;;;4.03;3.60;;;15.40;99.90;;;;;;5011677;28;20273;-46
2022/06/08 04:39:53;;;;;;;4.00;3.60;;;15.50;99.90;;;;;;5010907;28;20034;-48
2022/06/08 04:42:18;;;;;;;5.68;3.90;;;15.50;99.90;;;;;;5011504;28;20018;-47
2022/06/08 04:44:44;;;;;;;4.80;4.15;;;15.60;99.90;;;;;;5011508;28;20113;-49
2022/06/08 04:47:10;;;;;;;4.72;4.03;;;15.60;99.90;;;;;;5011507;28;20033;-50
2022/06/08 04:49:35;;;;;;;5.65;4.35;;;15.60;99.90;;;;;;5010797;28;20061;-47
2022/06/08 04:52:01;;;;;;;4.15;3.75;;;15.70;99.90;;;;;;5010943;28;20072;-48
2022/06/08 04:54:26;;;;;;;7.90;4.05;;;15.80;99.90;;;;;;5010598;28;20431;-47
2022/06/08 04:56:52;;;;;;;6.75;4.57;;;15.90;99.90;;;;;;5014888;28;20087;-47
2022/06/08 04:59:18;;;;;;;5.32;3.75;;;15.90;99.90;;;;;;5029300;28;20037;-49
2022/06/08 05:01:43;;;;;;;4.97;3.90;;;16.00;99.90;;;;;;5010412;28;20113;-47
2022/06/08 05:04:09;;;;;;;5.85;4.07;;;16.10;99.90;;;;;;5011443;28;20077;-48
2022/06/08 05:06:34;;;;;;;5.25;4.32;;;16.20;99.90;;;;;;5010838;28;20100;-48
2022/06/08 05:08:59;;;;;;;4.40;3.72;;;16.20;99.90;;;;;;5010898;28;20034;-49
2022/06/08 05:11:25;;;;;;;6.25;4.63;;;16.30;99.90;;;;;;5012413;28;20088;-48
2022/06/08 05:13:50;;;;;;;4.35;3.95;;;16.40;99.90;;;;;;5028940;28;20387;-50
2022/06/08 05:16:16;;;;;;;5.15;4.07;;;16.40;99.90;;;;;;5027916;28;20108;-50
2022/06/08 05:18:42;;;;;;;5.05;4.20;;;16.50;99.90;;;;;;5031508;28;20469;-47
2022/06/08 05:21:07;;;;;;;6.40;5.00;;;16.60;99.90;;;;;;5028183;28;20662;-48
2022/06/08 05:23:38;;;;;;;6.65;4.28;;;16.60;99.90;;;;;;5030885;28;20052;-47
2022/06/08 05:26:04;;;;;;;5.47;4.55;;;16.60;99.90;;;;;;5030084;28;20557;-48
2022/06/08 05:28:30;;;;;;;5.03;4.18;;;16.70;99.90;;;;;;5030982;28;20057;-49
2022/06/08 05:30:56;;;;;;;7.43;4.63;;;16.70;99.90;;;;;;5027326;28;20644;-50
2022/06/08 05:33:26;;;;;;;6.00;4.50;;;16.60;99.90;;;;;;5030004;28;20017;-49
2022/06/08 05:35:52;;;;;;;4.97;4.33;;;16.60;99.90;;;;;;5029623;28;20497;-47
2022/06/08 05:38:18;;;;;;;5.00;4.15;;;16.60;99.90;;;;;;5031955;28;20104;-50
2022/06/08 05:40:43;;;;;;;4.15;3.75;;;16.70;99.90;;;;;;5029847;28;20582;-50
2022/06/08 05:43:12;;;;;;;5.90;4.05;;;16.70;99.90;;;;;;5030084;28;20041;-49
2022/06/08 05:45:39;;;;;;;5.32;3.95;;;16.70;99.90;;;;;;5029994;28;20029;-49
2022/06/08 05:48:05;;;;;;;3.47;3.15;;;16.80;99.90;;;;;;5029444;28;20080;-48
2022/06/08 05:50:32;;;;;;;5.57;3.55;;;16.90;99.90;;;;;;5029128;28;20038;-49
2022/06/08 05:52:58;;;;;;;7.68;4.07;;;16.90;99.90;;;;;;5028757;28;20029;-50
2022/06/08 05:55:24;;;;;;;7.18;3.38;;;17.10;99.90;;;;;;5028693;28;20475;-48
2022/06/08 05:57:51;;;;;;;5.70;3.30;;;17.20;99.90;;;;;;5027402;28;20529;-48
2022/06/08 06:00:21;;;;;;;4.55;3.30;;;17.30;99.90;;;;;;5020671;28;20042;-48
2022/06/08 06:02:47;;;;;;;4.05;2.97;;;17.50;99.90;;;;;;5026637;28;20029;-46
2022/06/08 06:05:16;;;;;;;3.35;3.05;;;17.60;99.90;;;;;;5029710;28;20067;-47
2022/06/08 06:07:42;;;;;;;4.75;3.22;;;17.70;99.90;;;;;;5029869;28;20095;-47
2022/06/08 06:10:09;;;;;;;5.43;3.47;;;17.80;99.90;;;;;;5029933;28;20017;-50
2022/06/08 06:12:34;;;;;;;6.57;3.70;;;17.90;99.90;;;;;;5030725;28;20028;-49
2022/06/08 06:15:01;;;;;;;4.35;3.90;;;18.10;99.90;;;;;;5031056;28;20037;-47
2022/06/08 06:17:29;;;;;;;5.93;4.18;;;18.20;99.90;;;;;;5030708;28;20551;-48
2022/06/08 06:19:58;;;;;;;6.32;3.65;;;18.20;99.90;;;;;;5030035;28;20053;-49
2022/06/08 06:22:25;;;;;;;6.95;4.10;;;18.40;99.90;;;;;;5029440;28;20033;-48
2022/06/08 06:24:50;;;;;;;8.98;4.55;;;18.40;99.90;;;;;;5030987;28;20026;-48
2022/06/08 06:27:16;;;;;;;5.60;3.72;;;18.40;99.90;;;;;;5030675;28;20047;-47
2022/06/08 06:29:41;;;;;;;6.30;4.07;;;18.60;99.90;;;;;;5025506;28;20489;-49
2022/06/08 06:32:12;;;;;;;5.18;4.65;;;18.70;99.90;;;;;;5012035;28;20088;-50
2022/06/08 06:34:37;;;;;;;;;;;18.90;99.90;;;;;;5014104;28;20348;-48
2022/06/08 06:37:03;;;;;;;7.18;5.72;;;19.10;99.90;;;;;;5019237;28;19928;-47
2022/06/08 06:39:29;;;;;;;8.50;5.50;;;19.10;99.90;;;;;;5029742;28;20037;-48
2022/06/08 06:41:56;;;;;;;6.13;5.03;;;19.20;99.90;;;;;;5030208;28;20033;-48
2022/06/08 06:44:23;;;;;;;5.70;5.10;;;19.30;99.90;;;;;;5030573;28;20037;-48
2022/06/08 06:46:49;;;;;;;7.75;6.68;;;19.40;99.90;;;;;;5029970;28;20076;-48
2022/06/08 06:49:15;;;;;;;5.68;5.03;;;19.40;99.90;;;;;;5022441;28;20486;-49
2022/06/08 06:51:40;;;;;;;9.07;5.90;;;19.50;99.90;;;;;;5030127;28;20032;-51
2022/06/08 06:54:09;;;;;;;6.95;5.22;;;19.50;99.90;;;;;;5030573;28;20635;-52
2022/06/08 06:56:35;;;;;;;6.95;5.88;;;19.60;99.90;;;;;;5030464;28;20095;-50
2022/06/08 06:59:01;;;;;;;7.43;6.18;;;19.50;99.90;;;;;;5030127;28;20454;-49
2022/06/08 07:01:27;;;;;;;12.30;7.45;;;19.30;99.90;;;;;;5021433;28;20530;-49
2022/06/08 07:03:53;;;;;;;11.18;8.48;;;19.20;99.90;;;;;;5030399;28;20097;-46
2022/06/08 07:06:18;;;;;;;7.40;6.70;;;19.00;99.90;;;;;;5030132;28;20142;-50
2022/06/08 07:08:44;;;;;;;9.90;8.20;;;18.90;99.90;;;;;;5030196;28;20057;-48
2022/06/08 07:13:56;;;;;;;10.15;9.02;;;18.70;99.90;;;;;;5030353;28;20036;-48
2022/06/08 07:16:21;;;;;;;8.50;7.35;;;18.60;99.90;;;;;;5029226;28;20041;-50
2022/06/08 07:18:47;;;;;;;9.57;8.68;;;18.60;99.90;;;;;;5022565;28;20025;-50
2022/06/08 07:21:12;;;;;;;7.65;6.53;;;18.60;99.90;;;;;;5029658;28;20041;-48
2022/06/08 07:23:38;;;;;;;8.48;7.25;;;18.50;99.90;;;;;;5030285;28;20037;-50
2022/06/08 07:26:04;;;;;;;8.32;7.25;;;18.60;99.90;;;;;;5030217;28;20113;-51
2022/06/08 07:28:30;;;;;;;7.22;6.40;;;18.60;99.90;;;;;;5029809;28;20494;-48
2022/06/08 07:30:56;;;;;;;7.63;6.75;;;18.70;99.90;;;;;;5029274;28;20660;-50
2022/06/08 07:33:22;;;;;;;8.38;6.72;;;18.80;99.90;;;;;;5030101;28;20100;-48
2022/06/08 07:35:47;;;;;;;7.35;6.60;;;19.00;99.90;;;;;;5029726;28;20030;-49
2022/06/08 07:38:13;;;;;;;9.38;5.60;;;19.20;99.90;;;;;;5028534;28;20116;-51
2022/06/08 07:40:39;;;;;;;8.02;6.57;;;19.20;99.90;;;;;;5028488;28;20116;-47
2022/06/08 07:43:04;;;;;;;6.20;5.60;;;19.30;99.90;;;;;;5029894;28;20507;-48
2022/06/08 07:45:30;;;;;;;8.00;5.03;;;19.40;99.90;;;;;;5028353;28;20029;-49
2022/06/08 07:50:48;;;;;;;4.93;4.43;;;19.50;99.90;;;;;;4986313;28;20042;-50
2022/06/08 07:53:15;;;;;;;4.72;4.32;;;19.60;99.90;;;;;;5013921;28;20014;-50
2022/06/08 07:55:41;;;;;;;5.60;4.55;;;20.10;99.90;;;;;;5029526;28;20474;-51
2022/06/08 07:58:07;;;;;;;5.50;4.30;;;20.40;99.90;;;;;;5029026;28;20044;-49
2022/06/08 08:00:32;;;;;;;3.72;3.30;;;20.80;99.90;;;;;;5027617;28;20037;-50
2022/06/08 08:02:58;;;;;;;3.80;3.50;;;21.00;99.90;;;;;;5028649;28;20033;-50
2022/06/08 08:05:23;;;;;;;3.60;3.28;;;20.90;99.90;;;;;;5028482;28;20029;-50
2022/06/08 08:07:50;;;;;;;5.93;3.45;;;20.80;99.90;;;;;;5028586;28;20026;-48
2022/06/08 08:10:19;;;;;;;3.85;3.30;;;21.30;99.90;;;;;;5028134;28;20029;-50
2022/06/08 08:12:46;;;;;;;3.25;2.75;;;21.70;99.90;;;;;;5034423;28;20026;-50
2022/06/08 08:15:12;;;;;;;3.33;2.88;;;21.90;99.90;;;;;;5049454;28;20435;-50
2022/06/08 08:17:38;;;;;;;2.50;2.30;;;22.40;99.90;;;;;;5027920;28;20018;-48
2022/06/08 08:20:07;;;;;;;3.22;3.03;;;22.40;99.90;;;;;;5024845;28;20029;-48
2022/06/08 08:22:33;;;;;;;3.70;3.40;;;22.20;99.90;;;;;;5029168;28;20036;-51
2022/06/08 08:24:58;;;;;;;3.67;2.78;;;22.10;99.90;;;;;;5029544;28;20604;-51
2022/06/08 08:27:26;;;;;;;3.38;3.08;;;22.90;99.90;;;;;;5029209;28;20065;-48
2022/06/08 08:29:52;;;;;;;4.53;2.97;;;23.70;99.20;;;;;;5026508;28;20018;-48
2022/06/08 08:32:17;;;;;;;3.10;2.03;;;24.50;97.40;;;;;;5013155;28;20525;-51
2022/06/08 08:34:43;;;;;;;2.58;2.38;;;25.60;96.30;;;;;;5013269;28;20828;-49
2022/06/08 08:37:09;;;;;;;4.20;2.10;;;25.70;94.20;;;;;;5019708;28;20029;-48
2022/06/08 08:39:35;;;;;;;2.60;2.38;;;25.70;94.30;;;;;;5032559;28;20057;-50
2022/06/08 08:42:20;;;;;;;3.75;2.70;;;25.40;92.80;;;;;;5033311;28;20030;-48
2022/06/08 08:44:56;;;;;;;3.03;2.72;;;24.70;94.10;;;;;;5032534;28;20033;-50
2022/06/08 08:48:00;;;;;;;3.00;2.60;;;24.20;94.10;;;;;;5030294;28;20034;-48
2022/06/08 08:50:50;;;;;;;3.72;2.95;;;24.90;92.80;;;;;;5031018;28;20022;-49
2022/06/08 08:53:24;;;;;;;;;;;25.10;90.50;;;;;;5026099;28;20041;-51
2022/06/08 08:56:12;;;;;;;2.95;2.75;;;25.20;91.00;;;;;;5031837;28;19916;-50
2022/06/08 08:58:42;;;;;;;2.42;2.22;;;25.10;90.70;;;;;;5030795;28;20471;-50
2022/06/08 09:01:13;;;;;;;3.20;2.90;;;24.30;92.00;;;;;;5028815;28;20104;-47
2022/06/08 09:03:49;;;;;;;2.67;2.47;;;24.00;91.60;;;;;;5031284;28;20025;-50
2022/06/08 09:06:19;;;;;;;3.17;2.85;;;23.90;91.80;;;;;;5030191;28;20079;-49
2022/06/08 09:08:51;;;;;;;3.15;2.85;;;23.50;92.80;;;;;;5031985;28;20067;-49
2022/06/08 09:11:26;;;;;;;3.15;2.90;;;23.20;93.60;;;;;;5031585;28;20029;-50
2022/06/08 09:14:02;;;;;;;2.78;2.58;;;23.00;94.10;;;;;;5028598;28;20029;-50
2022/06/08 09:16:39;;;;;;;5.30;2.97;;;22.90;94.50;;;;;;5027482;28;20033;-50
2022/06/08 09:19:25;;;;;;;4.25;2.53;;;23.70;93.40;;;;;;5031663;28;20370;-49
2022/06/08 09:22:11;;;;;;;3.10;2.38;;;24.70;92.60;;;;;;5029305;28;20037;-50
2022/06/08 09:24:41;;;;;;;2.88;2.55;;;25.70;91.30;;;;;;5016896;28;20036;-52
2022/06/08 09:27:30;;;;;;;4.57;2.70;;;26.30;89.90;;;;;;5027301;28;20021;-49
2022/06/08 09:30:09;;;;;;;6.93;3.13;;;26.20;84.30;;;;;;5029566;28;20032;-50
2022/06/08 09:32:49;;;;;;;3.38;2.83;;;26.90;84.30;;;;;;5028977;28;20410;-49
2022/06/08 09:35:40;;;;;;;2.55;2.10;;;26.70;82.60;;;;;;5027567;28;20101;-48
2022/06/08 09:38:13;;;;;;;2.45;2.25;;;27.20;81.60;;;;;;5030741;28;20025;-51
2022/06/08 09:41:00;;;;;;;2.38;2.17;;;27.80;79.00;;;;;;5030266;28;20104;-51
2022/06/08 09:43:43;;;;;;;4.68;2.65;;;28.10;76.30;;;;;;5030010;28;20021;-51
2022/06/08 09:52:44;;;;;;;2.45;2.25;;;26.70;77.00;;;;;;5029148;28;20032;-48
2022/06/08 09:55:45;;;;;;;2.45;2.15;;;26.40;77.50;;;;;;5029096;28;20113;-48
2022/06/08 09:58:17;;;;;;;4.75;2.95;;;25.90;78.10;;;;;;5028925;28;20028;-50
2022/06/08 10:01:17;;;;;;;2.75;2.10;;;26.00;79.80;;;;;;5030536;28;20029;-51
2022/06/08 10:04:02;;;;;;;1.85;1.75;;;27.00;77.30;;;;;;5030486;28;20052;-49
2022/06/08 10:06:36;;;;;;;4.57;2.40;;;27.90;75.50;;;;;;5030703;28;20025;-49
2022/06/08 10:09:23;;;;;;;2.55;2.15;;;27.30;72.00;;;;;;5031044;28;20041;-50
2022/06/08 10:12:26;;;;;;;2.47;2.28;;;27.30;72.40;;;;;;5028013;28;20021;-49
2022/06/08 10:15:18;;;;;;;2.63;2.35;;;27.30;72.60;;;;;;5029777;28;20032;-50
2022/06/08 10:17:56;;;;;;;4.40;2.05;;;28.20;73.40;;;;;;5029217;28;20026;-50
2022/06/08 10:20:38;;;;;;;3.58;2.10;;;28.50;72.60;;;;;;5030169;28;20508;-48
2022/06/08 10:23:17;;;;;;;3.50;2.40;;;29.10;69.20;;;;;;5030220;28;20048;-50
2022/06/08 10:25:47;;;;;;;3.15;1.90;;;28.10;70.80;;;;;;5030635;28;20040;-46
2022/06/08 10:28:22;;;;;;;4.57;1.90;;;28.30;70.30;;;;;;5029797;28;20026;-48
2022/06/08 10:31:02;;;;;;;2.03;1.92;;;28.80;66.80;;;;;;5027099;28;20021;-50
2022/06/08 10:33:48;;;;;;;2.13;2.00;;;28.60;67.40;;;;;;5030334;28;20490;-50
2022/06/08 10:36:15;;;;;;;2.97;2.50;;;28.90;68.80;;;;;;5030950;28;20075;-50
2022/06/08 10:38:42;;;;;;;3.50;2.05;;;28.10;69.10;;;;;;5029529;28;20266;-50
2022/06/08 10:44:44;;;;;;;4.55;1.80;;;29.50;66.10;;;;;;5029431;28;20449;-50
2022/06/08 10:47:12;;;;;;;2.20;2.08;;;30.00;64.90;;;;;;5028358;28;20117;-48
2022/06/08 10:49:37;;;;;;;4.22;2.05;;;28.30;64.80;;;;;;5028127;28;20088;-50
2022/06/08 10:52:18;;;;;;;2.92;2.22;;;27.20;67.20;;;;;;5028142;28;20034;-50
2022/06/08 10:55:05;;;;;;;2.97;2.28;;;27.10;68.50;;;;;;5029067;28;20426;-48
2022/06/08 10:57:36;;;;;;;2.67;2.20;;;28.10;70.50;;;;;;5027947;28;20359;-50
2022/06/08 11:00:24;;;;;;;2.35;1.90;;;30.30;66.50;;;;;;5020384;28;20026;-48
2022/06/08 11:03:03;;;;;;;2.65;1.80;;;31.80;63.40;;;;;;5008738;28;20537;-51
2022/06/08 11:05:34;;;;;;;2.13;1.77;;;32.90;60.10;;;;;;5008914;28;20025;-52
2022/06/08 11:08:00;;;;;;;2.75;1.80;;;33.80;60.30;;;;;;5022812;28;20056;-51
2022/06/08 11:10:44;;;;;;;3.95;2.15;;;34.40;54.90;;;;;;5020583;28;20014;-51
2022/06/08 11:13:22;;;;;;;2.22;2.00;;;33.60;54.90;;;;;;5028786;28;20025;-50
2022/06/08 11:15:56;;;;;;;1.75;1.55;;;33.20;54.80;;;;;;5027699;28;20033;-51
2022/06/08 11:18:31;;;;;;;2.20;2.00;;;32.40;56.40;;;;;;5023026;28;20025;-49
2022/06/08 11:21:05;;;;;;;2.00;1.85;;;31.90;58.50;;;;;;5027992;28;20079;-50
2022/06/08 11:23:38;;;;;;;2.08;1.60;;;32.30;59.50;;;;;;5028455;28;20029;-51
2022/06/08 11:26:14;;;;;;;2.47;1.85;;;32.90;56.20;;;;;;5028449;28;20048;-50
2022/06/08 11:28:44;;;;;;;2.58;1.77;;;33.70;55.10;;;;;;5028270;28;20036;-51
2022/06/08 11:31:32;;;;;;;1.60;1.50;;;34.00;54.30;;;;;;5027814;28;20047;-51
2022/06/08 11:34:06;;;;;;;2.40;1.83;;;34.70;52.20;;;;;;5027023;28;20041;-51
2022/06/08 11:36:50;;;;;;;1.55;1.40;;;34.90;50.30;;;;;;5028234;28;20026;-50
2022/06/08 11:39:37;;;;;;;1.75;1.65;;;33.60;51.70;;;;;;5028247;28;20037;-49
2022/06/08 11:42:24;;;;;;;5.15;1.80;;;33.70;55.70;;;;;;5028526;28;20521;-50
2022/06/08 11:45:18;;;;;;;1.65;1.55;;;33.70;51.80;;;;;;5028337;28;20064;-50
2022/06/08 11:47:52;;;;;;;2.05;1.52;;;32.70;51.90;;;;;;5020027;28;20052;-51
2022/06/08 11:50:29;;;;;;;1.55;1.40;;;32.40;51.20;;;;;;5027497;28;20029;-50
2022/06/08 11:53:02;;;;;;;2.63;1.60;;;31.20;52.20;;;;;;5028501;28;20104;-50
2022/06/08 11:55:30;;;;;;;2.10;1.90;;;32.00;51.30;;;;;;5028382;28;20062;-50
2022/06/08 11:58:05;;;;;;;2.55;1.73;;;32.30;51.30;;;;;;5027790;28;20501;-49
2022/06/08 12:00:34;;;;;;;1.90;1.70;;;32.10;54.00;;;;;;5024147;28;20045;-48
2022/06/08 12:03:05;;;;;;;1.67;1.50;;;30.30;54.50;;;;;;5009482;28;20091;-50
2022/06/08 12:05:32;;;;;;;2.75;1.80;;;29.10;56.90;;;;;;5012252;28;20038;-50
2022/06/08 12:08:20;;;;;;;5.80;1.92;;;29.20;56.00;;;;;;5017945;28;20152;-48
2022/06/08 12:10:46;;;;;;;1.73;1.63;;;28.50;59.00;;;;;;5031238;28;20648;-51
2022/06/08 12:13:18;;;;;;;3.88;1.90;;;28.70;60.70;;;;;;5031681;28;20021;-48
2022/06/08 12:15:56;;;;;;;2.28;2.08;;;28.40;58.30;;;;;;5031459;28;20494;-47
2022/06/08 12:18:30;;;;;;;3.58;2.00;;;28.50;60.50;;;;;;5023713;28;20048;-48
2022/06/08 12:21:11;;;;;;;3.40;1.83;;;29.00;59.00;;;;;;5031111;28;20441;-47
2022/06/08 12:24:03;;;;;;;1.83;1.67;;;29.00;57.70;;;;;;5031762;28;20091;-47
2022/06/08 12:26:39;;;;;;;2.00;1.67;;;28.00;56.80;;;;;;5030417;28;20032;-49
2022/06/08 12:29:16;;;;;;;1.95;1.75;;;27.70;58.60;;;;;;5031473;28;20490;-49
2022/06/08 12:31:43;;;;;;;2.38;2.00;;;27.60;58.00;;;;;;5022809;28;20128;-47
2022/06/08 12:34:30;;;;;;;3.28;2.35;;;27.00;56.80;;;;;;5021819;28;20104;-47
2022/06/08 12:36:56;;;;;;;1.70;1.60;;;26.80;60.80;;;;;;5031408;28;20022;-47
2022/06/08 12:39:27;;;;;;;2.45;2.08;;;26.70;61.90;;;;;;5031247;28;20047;-48
2022/06/08 12:41:55;;;;;;;2.53;2.03;;;26.70;61.50;;;;;;5031010;28;20030;-47
2022/06/08 12:44:26;;;;;;;2.85;1.85;;;26.90;60.20;;;;;;5029866;28;20210;-48
2022/06/08 12:47:01;;;;;;;2.58;1.33;;;27.30;62.20;;;;;;5030433;28;20257;-48
2022/06/08 12:49:42;;;;;;;2.70;1.65;;;27.90;58.80;;;;;;5030822;28;20257;-49
2022/06/08 12:52:36;;;;;;;1.33;1.17;;;28.30;59.40;;;;;;5031216;28;20278;-50
2022/06/08 12:55:10;;;;;;;2.92;1.70;;;28.50;57.70;;;;;;5029418;28;20018;-49
2022/06/08 12:57:35;;;;;;;1.70;1.60;;;28.20;53.60;;;;;;5030464;28;20030;-49
2022/06/08 13:00:07;;;;;;;1.33;1.25;;;27.60;56.20;;;;;;5023104;28;20049;-49
2022/06/08 13:02:38;;;;;;;2.88;1.70;;;27.20;57.50;;;;;;5011201;28;20061;-50
2022/06/08 13:05:19;;;;;;;2.15;1.58;;;27.30;57.20;;;;;;5010941;28;20502;-47
2022/06/08 13:07:45;;;;;;;2.22;1.70;;;27.20;56.50;;;;;;5016158;28;20096;-47
2022/06/08 13:10:11;;;;;;;2.80;2.15;;;26.60;56.70;;;;;;5030283;28;20393;-48
2022/06/08 13:12:42;;;;;;;4.22;1.98;;;26.60;57.50;;;;;;5024840;28;20387;-49
2022/06/08 13:15:21;;;;;;;2.00;1.80;;;26.50;61.10;;;;;;5026564;28;20029;-48
2022/06/08 13:17:48;;;;;;;2.03;1.60;;;26.60;59.20;;;;;;5030672;28;20036;-49
2022/06/08 13:20:19;;;;;;;1.55;1.45;;;26.60;59.20;;;;;;5029957;28;20033;-50
2022/06/08 13:22:45;;;;;;;3.00;1.50;;;27.10;59.60;;;;;;5030730;28;20029;-49
2022/06/08 13:25:15;;;;;;;1.98;1.42;;;27.30;58.10;;;;;;5030028;28;20048;-46
2022/06/08 13:27:40;;;;;;;1.33;1.23;;;28.00;56.20;;;;;;5020627;28;20104;-50
2022/06/08 13:30:06;;;;;;;1.88;1.60;;;28.10;53.60;;;;;;5030064;28;20033;-50
2022/06/08 13:32:32;;;;;;;1.75;1.52;;;28.10;54.10;;;;;;5030423;28;20047;-49